aviador You're here:

YWHA Decoded Metar

WHYALLA AIRPORT in _UNIDENTIFIED
Report Time2018-01-22 01:00:00
UTC Time2018-01-22 01:59:46
Flight Rules vfr VFR
Wind180° at 19 kt
W.Decomp.*RWY 17: 19.0 kt HW 1.0 kt RCW
RWY 23: 10.3 kt HW 15.9 kt LCW
W.Rank180° ranks 3
Current wind is above 180° avg. (11.4)
Visibility9999 m
Phenomena:N/A
Clouds:N/A
Expected CloudBase > 2,800 ft AGL from Temp-Dew spread
CeilingNone
Temp25°C (ISA +10)
Dew Point18°C (65% RH)
AAT20.9°C
QNH1010 hPa
Density Alt1,585 ft
Elevation43 ft
Report Wrong Elevation
Raw Report
YWHA 220100Z AUTO 18019KT 9999 // NCD 25/18 Q1010=

Extra information for YWHA:More info

Metar Taf Metar & Taf Last 4 Metars F.Rules Stats Wind Profile Meteogram Temp Stats Airport Information Weather charts Add Link Nearby VenuesMetar ALERT Operation Metar Decoded Social comments